createdAt,value
2019-03-19T00:00:13.634Z,15.70
2019-03-19T00:02:41.856Z,15.70
2019-03-19T00:05:10.172Z,15.70
2019-03-19T00:07:38.487Z,15.60
2019-03-19T00:10:07.155Z,15.60
2019-03-19T00:12:35.331Z,15.60
2019-03-19T00:15:03.497Z,15.60
2019-03-19T00:17:31.817Z,15.60
2019-03-19T00:20:00.380Z,15.60
2019-03-19T00:22:28.897Z,15.50
2019-03-19T00:24:56.913Z,15.50
2019-03-19T00:27:25.145Z,15.00
2019-03-19T00:29:53.474Z,15.10
2019-03-19T00:32:21.678Z,15.10
2019-03-19T00:34:49.866Z,15.10
2019-03-19T00:37:18.074Z,15.20
2019-03-19T00:39:46.394Z,15.10
2019-03-19T00:42:14.679Z,15.20
2019-03-19T00:44:42.971Z,15.30
2019-03-19T00:47:11.129Z,15.20
2019-03-19T00:49:39.210Z,15.30
2019-03-19T00:52:07.627Z,15.30
2019-03-19T00:54:35.822Z,15.40
2019-03-19T00:57:04.062Z,15.40
2019-03-19T00:59:32.372Z,15.30
2019-03-19T01:02:00.681Z,15.30
2019-03-19T01:04:28.969Z,15.20
2019-03-19T01:06:57.294Z,15.10
2019-03-19T01:09:25.506Z,15.10
2019-03-19T01:11:53.683Z,15.00
2019-03-19T01:14:22.022Z,14.90
2019-03-19T01:16:50.246Z,14.70
2019-03-19T01:19:18.520Z,14.20
2019-03-19T01:21:47.974Z,14.10
2019-03-19T01:24:16.181Z,14.20
2019-03-19T01:26:44.381Z,14.40
2019-03-19T01:29:12.898Z,14.70
2019-03-19T01:31:41.156Z,14.80
2019-03-19T01:34:09.391Z,14.80
2019-03-19T01:36:37.729Z,14.80
2019-03-19T01:39:06.755Z,14.90
2019-03-19T01:41:34.955Z,14.90
2019-03-19T01:44:03.367Z,14.90
2019-03-19T01:46:31.585Z,14.80
2019-03-19T01:48:59.859Z,14.80
2019-03-19T01:51:28.096Z,14.80
2019-03-19T01:53:56.110Z,14.80
2019-03-19T01:56:24.384Z,14.60
2019-03-19T01:58:52.394Z,14.40
2019-03-19T02:01:20.623Z,14.10
2019-03-19T02:03:48.705Z,14.20
2019-03-19T02:06:16.941Z,14.20
2019-03-19T02:08:45.363Z,14.10
2019-03-19T02:11:13.770Z,13.70
2019-03-19T02:13:42.071Z,13.60
2019-03-19T02:16:10.357Z,13.70
2019-03-19T02:18:38.569Z,13.80
2019-03-19T02:21:06.945Z,13.70
2019-03-19T02:23:35.026Z,13.60
2019-03-19T02:26:03.396Z,13.40
2019-03-19T02:28:31.609Z,13.30
2019-03-19T02:30:59.828Z,13.10
2019-03-19T02:33:27.899Z,13.20
2019-03-19T02:35:56.139Z,13.10
2019-03-19T02:38:24.353Z,13.00
2019-03-19T02:40:52.524Z,12.90
2019-03-19T02:43:22.792Z,12.70
2019-03-19T02:45:51.035Z,12.80
2019-03-19T02:48:19.296Z,13.20
2019-03-19T02:50:47.575Z,13.30
2019-03-19T02:53:15.744Z,13.40
2019-03-19T02:55:43.917Z,13.50
2019-03-19T02:58:12.147Z,13.50
2019-03-19T03:00:40.358Z,13.50
2019-03-19T03:03:08.648Z,13.60
2019-03-19T03:05:36.884Z,13.70
2019-03-19T03:08:05.089Z,13.80
2019-03-19T03:10:33.417Z,13.90
2019-03-19T03:13:01.818Z,14.00
2019-03-19T03:15:30.130Z,13.90
2019-03-19T03:17:58.416Z,13.90
2019-03-19T03:20:26.699Z,13.90
2019-03-19T03:22:54.969Z,14.00
2019-03-19T03:25:23.260Z,14.00
2019-03-19T03:27:51.677Z,14.00
2019-03-19T03:30:39.043Z,14.00
2019-03-19T03:33:07.530Z,13.90
2019-03-19T03:35:35.699Z,14.10
2019-03-19T03:38:03.954Z,14.10
2019-03-19T03:40:32.207Z,14.10
2019-03-19T03:43:00.523Z,14.10
2019-03-19T03:45:28.787Z,14.20
2019-03-19T03:47:56.961Z,14.20
2019-03-19T03:50:25.231Z,14.10
2019-03-19T03:52:53.404Z,14.00
2019-03-19T03:55:21.751Z,13.90
2019-03-19T03:57:50.214Z,14.00
2019-03-19T04:00:18.560Z,14.10
2019-03-19T04:02:46.873Z,13.90
2019-03-19T04:05:15.641Z,13.80
2019-03-19T04:07:43.897Z,13.80
2019-03-19T04:10:12.218Z,13.80
2019-03-19T04:12:40.536Z,14.00
2019-03-19T04:15:09.992Z,14.00
2019-03-19T04:17:38.164Z,14.10
2019-03-19T04:20:06.494Z,14.10
2019-03-19T04:22:34.634Z,14.10
2019-03-19T04:25:04.001Z,14.20
2019-03-19T04:27:32.274Z,14.20
2019-03-19T04:30:00.630Z,14.00
2019-03-19T04:32:28.843Z,14.10
2019-03-19T04:34:57.158Z,14.10
2019-03-19T04:37:25.340Z,14.20
2019-03-19T04:39:53.460Z,14.10
2019-03-19T04:42:21.695Z,13.90
2019-03-19T04:44:50.048Z,14.10
2019-03-19T04:47:18.289Z,14.10
2019-03-19T04:49:46.596Z,14.10
2019-03-19T04:52:14.759Z,14.20
2019-03-19T04:54:42.990Z,14.10
2019-03-19T04:57:11.313Z,14.00
2019-03-19T04:59:39.538Z,14.00
2019-03-19T05:02:07.731Z,14.10
2019-03-19T05:04:35.871Z,14.30
2019-03-19T05:07:04.016Z,14.20
2019-03-19T05:09:32.172Z,14.20
2019-03-19T05:12:00.364Z,14.30
2019-03-19T05:14:28.654Z,14.20
2019-03-19T05:16:56.953Z,14.20
2019-03-19T05:19:25.187Z,14.20
2019-03-19T05:21:53.568Z,14.00
2019-03-19T05:24:21.806Z,14.20
2019-03-19T05:26:50.016Z,14.20
2019-03-19T05:29:18.189Z,14.30
2019-03-19T05:31:46.460Z,14.40
2019-03-19T05:34:14.649Z,14.40
2019-03-19T05:36:43.055Z,14.30
2019-03-19T05:39:11.277Z,14.30
2019-03-19T05:41:39.479Z,14.30
2019-03-19T05:44:07.637Z,14.30
2019-03-19T05:46:35.881Z,14.30
2019-03-19T05:49:04.005Z,14.40
2019-03-19T05:51:32.189Z,14.50
2019-03-19T05:54:00.499Z,14.70
2019-03-19T05:56:28.724Z,14.70
2019-03-19T05:58:56.895Z,14.80
2019-03-19T06:01:25.240Z,14.80
2019-03-19T06:03:53.420Z,14.90
2019-03-19T06:06:21.758Z,14.70
2019-03-19T06:08:50.048Z,14.80
2019-03-19T06:11:18.433Z,14.80
2019-03-19T06:13:46.659Z,14.80
2019-03-19T06:16:14.798Z,14.70
2019-03-19T06:18:42.974Z,14.60
2019-03-19T06:21:11.178Z,14.60
2019-03-19T06:23:39.406Z,14.60
2019-03-19T06:26:07.739Z,14.70
2019-03-19T06:28:35.896Z,14.70
2019-03-19T06:31:04.134Z,14.80
2019-03-19T06:33:32.348Z,14.70
2019-03-19T06:36:00.613Z,15.00
2019-03-19T06:38:28.862Z,15.60
2019-03-19T06:40:57.097Z,15.80
2019-03-19T06:43:25.140Z,15.80
2019-03-19T06:45:53.421Z,15.60
2019-03-19T06:48:21.727Z,15.40
2019-03-19T06:50:49.863Z,15.50
2019-03-19T06:53:18.157Z,15.60
2019-03-19T06:55:46.438Z,15.70
2019-03-19T06:58:14.587Z,15.70
2019-03-19T07:00:42.882Z,15.80
2019-03-19T07:03:11.088Z,15.70
2019-03-19T07:05:39.217Z,15.90
2019-03-19T07:08:07.442Z,15.70
2019-03-19T07:10:35.479Z,15.50
2019-03-19T07:13:03.466Z,15.30
2019-03-19T07:15:31.874Z,15.20
2019-03-19T07:17:59.975Z,15.10
2019-03-19T07:20:28.138Z,14.90
2019-03-19T07:22:56.264Z,14.90
2019-03-19T07:25:24.297Z,15.10
2019-03-19T07:27:52.568Z,15.10
2019-03-19T07:30:21.017Z,15.20
2019-03-19T07:32:49.224Z,15.30
2019-03-19T07:35:17.824Z,15.30
2019-03-19T07:37:46.179Z,15.60
2019-03-19T07:40:14.356Z,15.90
2019-03-19T07:42:42.651Z,16.10
2019-03-19T07:45:12.895Z,16.20
2019-03-19T07:47:41.130Z,16.10
2019-03-19T07:50:10.730Z,16.00
2019-03-19T07:52:39.250Z,15.90
2019-03-19T07:55:07.696Z,16.00
2019-03-19T07:57:35.891Z,16.10
2019-03-19T08:00:05.134Z,16.30
2019-03-19T08:02:33.354Z,17.10
2019-03-19T08:05:01.655Z,17.40
2019-03-19T08:07:31.274Z,17.50
2019-03-19T08:09:59.513Z,17.40
2019-03-19T08:12:27.789Z,17.20
2019-03-19T08:14:56.111Z,16.90
2019-03-19T08:17:24.210Z,17.00
2019-03-19T08:19:52.426Z,17.00
2019-03-19T08:22:20.854Z,17.10
2019-03-19T08:24:49.051Z,17.30
2019-03-19T08:27:17.223Z,17.40
2019-03-19T08:29:45.357Z,17.70
2019-03-19T08:32:13.599Z,17.90
2019-03-19T08:34:41.786Z,18.10
2019-03-19T08:37:09.951Z,18.50
2019-03-19T08:39:38.038Z,18.90
2019-03-19T08:42:06.165Z,19.20
2019-03-19T08:44:34.646Z,19.10
2019-03-19T08:47:02.816Z,18.80
2019-03-19T08:49:30.884Z,18.70
2019-03-19T08:51:59.117Z,18.60
2019-03-19T08:54:27.330Z,18.70
2019-03-19T08:56:55.624Z,18.50
2019-03-19T08:59:24.043Z,18.60
2019-03-19T09:01:52.267Z,18.60
2019-03-19T09:04:20.655Z,18.60
2019-03-19T09:06:48.888Z,18.30
2019-03-19T09:09:17.087Z,18.40
2019-03-19T09:11:45.357Z,18.30
2019-03-19T09:14:13.745Z,18.20
2019-03-19T09:16:41.917Z,18.20
2019-03-19T09:19:10.090Z,18.30
2019-03-19T09:21:38.317Z,18.10
2019-03-19T09:24:06.563Z,18.10
2019-03-19T09:26:34.766Z,18.10
2019-03-19T09:29:03.051Z,17.90
2019-03-19T09:31:31.261Z,17.70
2019-03-19T09:33:59.534Z,17.40
2019-03-19T09:36:27.978Z,17.20
2019-03-19T09:38:56.078Z,16.90
2019-03-19T09:41:24.354Z,16.70
2019-03-19T09:43:53.654Z,16.90
2019-03-19T09:46:21.945Z,16.90
2019-03-19T09:48:50.732Z,17.00
2019-03-19T09:51:18.968Z,16.90
2019-03-19T09:53:47.165Z,17.00
2019-03-19T09:56:15.241Z,16.80
2019-03-19T09:58:43.588Z,16.70
2019-03-19T10:01:11.785Z,16.70
2019-03-19T10:03:39.962Z,16.80
2019-03-19T10:06:13.853Z,16.80
2019-03-19T10:08:38.254Z,16.80
2019-03-19T10:11:06.552Z,16.90
2019-03-19T10:13:34.885Z,17.00
2019-03-19T10:16:03.077Z,16.90
2019-03-19T10:18:31.279Z,16.80
2019-03-19T10:20:59.606Z,16.60
2019-03-19T10:23:27.920Z,16.50
2019-03-19T10:25:56.196Z,16.50
2019-03-19T10:28:24.423Z,16.40
2019-03-19T10:30:52.646Z,16.40
2019-03-19T10:33:21.038Z,16.20
2019-03-19T10:35:49.458Z,16.20
2019-03-19T10:38:17.790Z,16.50
2019-03-19T10:40:46.051Z,16.70
2019-03-19T10:43:14.343Z,16.80
2019-03-19T10:45:42.562Z,16.90
2019-03-19T10:48:10.792Z,16.80
2019-03-19T10:50:39.115Z,16.90
2019-03-19T10:53:07.439Z,16.80
2019-03-19T10:55:35.517Z,16.70
2019-03-19T10:58:10.930Z,16.60
2019-03-19T11:00:34.168Z,16.60
2019-03-19T11:03:02.539Z,16.80
2019-03-19T11:05:32.546Z,16.90
2019-03-19T11:08:00.810Z,16.50
2019-03-19T11:10:29.065Z,16.40
2019-03-19T11:12:57.473Z,16.50
2019-03-19T11:15:25.699Z,16.50
2019-03-19T11:17:54.066Z,16.60
2019-03-19T11:20:22.435Z,16.70
2019-03-19T11:22:50.792Z,16.50
2019-03-19T11:25:19.021Z,16.40
2019-03-19T11:27:47.370Z,16.30
2019-03-19T11:30:17.348Z,16.30
2019-03-19T11:32:45.573Z,16.20
2019-03-19T11:35:14.174Z,16.30
2019-03-19T11:37:42.566Z,16.50
2019-03-19T11:40:11.318Z,16.60
2019-03-19T11:42:39.567Z,16.50
2019-03-19T11:45:08.614Z,16.40
2019-03-19T11:47:36.934Z,16.20
2019-03-19T11:50:07.121Z,15.90
2019-03-19T11:52:35.365Z,16.00
2019-03-19T11:55:04.419Z,15.90
2019-03-19T11:57:32.797Z,15.90
2019-03-19T12:00:10.818Z,16.00
2019-03-19T12:02:31.237Z,16.30
2019-03-19T12:04:59.471Z,16.30
2019-03-19T12:07:27.678Z,16.30
2019-03-19T12:09:55.959Z,16.20
2019-03-19T12:12:24.311Z,16.20
2019-03-19T12:14:52.393Z,16.50
2019-03-19T12:17:20.678Z,16.30
2019-03-19T12:19:48.904Z,16.20
2019-03-19T12:22:17.116Z,16.40
2019-03-19T12:24:45.414Z,16.40
2019-03-19T12:27:13.630Z,16.40
2019-03-19T12:29:41.768Z,16.30
2019-03-19T12:32:10.108Z,16.30
2019-03-19T12:34:38.262Z,16.40
2019-03-19T12:37:06.465Z,16.30
2019-03-19T12:39:34.751Z,16.30
2019-03-19T12:42:02.986Z,16.30
2019-03-19T12:44:31.131Z,16.40
2019-03-19T12:46:59.477Z,16.40
2019-03-19T12:49:28.001Z,16.00
2019-03-19T12:51:56.179Z,16.10
2019-03-19T12:54:24.394Z,16.20
2019-03-19T12:56:52.697Z,16.20
2019-03-19T12:59:20.809Z,16.10
2019-03-19T13:01:49.136Z,16.10
2019-03-19T13:04:17.457Z,16.00
2019-03-19T13:06:45.669Z,16.10
2019-03-19T13:09:13.955Z,16.00
2019-03-19T13:11:42.089Z,15.90
2019-03-19T13:14:10.288Z,15.90
2019-03-19T13:16:38.361Z,16.00
2019-03-19T13:19:06.511Z,16.10
2019-03-19T13:21:34.765Z,16.20
2019-03-19T13:24:02.983Z,16.00
2019-03-19T13:26:31.228Z,16.20
2019-03-19T13:28:59.448Z,16.30
2019-03-19T13:31:27.736Z,16.30
2019-03-19T13:33:55.626Z,16.20
2019-03-19T13:36:23.863Z,16.30
2019-03-19T13:38:52.244Z,16.30
2019-03-19T13:41:20.574Z,16.40
2019-03-19T13:43:48.790Z,16.10
2019-03-19T13:46:16.863Z,16.20
2019-03-19T13:48:46.942Z,16.30
2019-03-19T13:51:15.222Z,16.30
2019-03-19T13:53:43.452Z,16.30
2019-03-19T13:56:11.770Z,16.10
2019-03-19T13:58:39.871Z,16.00
2019-03-19T14:01:08.162Z,16.00
2019-03-19T14:03:36.390Z,16.20
2019-03-19T14:06:04.589Z,16.20
2019-03-19T14:08:32.894Z,16.20
2019-03-19T14:11:01.220Z,16.10
2019-03-19T14:13:29.427Z,16.10
2019-03-19T14:15:57.501Z,16.10
2019-03-19T14:18:25.731Z,16.10
2019-03-19T14:20:53.942Z,16.10
2019-03-19T14:23:22.240Z,15.90
2019-03-19T14:25:50.413Z,16.00
2019-03-19T14:28:19.637Z,16.20
2019-03-19T14:30:48.220Z,16.10
2019-03-19T14:33:16.516Z,16.10
2019-03-19T14:35:44.910Z,16.10
2019-03-19T14:38:13.098Z,16.20
2019-03-19T14:40:41.452Z,16.30
2019-03-19T14:43:09.658Z,16.20
2019-03-19T14:45:37.972Z,16.20
2019-03-19T14:48:06.435Z,16.10
2019-03-19T14:50:34.586Z,16.20
2019-03-19T14:53:02.890Z,16.30
2019-03-19T14:55:31.127Z,16.20
2019-03-19T14:57:59.429Z,16.10
2019-03-19T15:00:27.808Z,16.20
2019-03-19T15:02:57.107Z,16.30
2019-03-19T15:05:25.368Z,16.30
2019-03-19T15:07:53.557Z,16.20
2019-03-19T15:10:21.883Z,15.90
2019-03-19T15:12:50.095Z,16.00
2019-03-19T15:15:18.280Z,16.00
2019-03-19T15:17:46.598Z,16.10
2019-03-19T15:20:16.311Z,16.10
2019-03-19T15:22:44.617Z,16.20
2019-03-19T15:25:12.868Z,16.00
2019-03-19T15:27:41.100Z,15.90
2019-03-19T15:30:09.183Z,15.90
2019-03-19T15:32:37.367Z,15.90
2019-03-19T15:35:06.743Z,16.00
2019-03-19T15:37:36.724Z,16.00
2019-03-19T15:40:05.971Z,16.10
2019-03-19T15:42:34.111Z,16.10
2019-03-19T15:45:02.408Z,16.00
2019-03-19T15:47:30.579Z,16.00
2019-03-19T15:49:58.844Z,16.10
2019-03-19T15:52:27.025Z,16.20
2019-03-19T15:54:55.341Z,16.00
2019-03-19T15:57:23.545Z,16.00
2019-03-19T15:59:51.722Z,16.10
2019-03-19T16:02:20.209Z,16.00
2019-03-19T16:04:48.387Z,16.10
2019-03-19T16:07:17.799Z,16.00
2019-03-19T16:09:46.110Z,16.00
2019-03-19T16:12:14.335Z,16.10
2019-03-19T16:14:42.410Z,16.10
2019-03-19T16:17:10.647Z,16.10
2019-03-19T16:19:38.691Z,16.10
2019-03-19T16:22:26.197Z,16.00
2019-03-19T16:24:54.574Z,16.00
2019-03-19T16:27:22.738Z,16.00
2019-03-19T16:29:50.970Z,15.90
2019-03-19T16:32:19.409Z,15.90
2019-03-19T16:34:47.560Z,15.70
2019-03-19T16:37:15.791Z,15.70
2019-03-19T16:39:44.003Z,15.60
2019-03-19T16:42:12.170Z,15.50
2019-03-19T16:44:40.306Z,15.60
2019-03-19T16:47:08.748Z,15.60
2019-03-19T16:49:37.010Z,15.60
2019-03-19T16:52:05.842Z,15.50
2019-03-19T16:54:33.956Z,15.60
2019-03-19T16:57:02.132Z,15.50
2019-03-19T16:59:30.458Z,15.40
2019-03-19T17:02:01.741Z,15.40
2019-03-19T17:04:28.806Z,15.40
2019-03-19T17:06:57.154Z,15.40
2019-03-19T17:09:25.500Z,15.40
2019-03-19T17:11:53.737Z,15.20
2019-03-19T17:14:22.095Z,15.10
2019-03-19T17:16:50.394Z,15.00
2019-03-19T17:19:18.567Z,14.80
2019-03-19T17:21:46.916Z,14.70
2019-03-19T17:24:15.055Z,14.80
2019-03-19T17:26:43.314Z,14.70
2019-03-19T17:29:11.552Z,14.60
2019-03-19T17:31:39.822Z,14.70
2019-03-19T17:34:08.034Z,14.70
2019-03-19T17:36:36.250Z,14.60
2019-03-19T17:39:06.774Z,14.70
2019-03-19T17:41:34.806Z,14.50
2019-03-19T17:44:03.021Z,14.70
2019-03-19T17:46:31.330Z,14.90
2019-03-19T17:48:59.553Z,15.00
2019-03-19T17:51:27.878Z,15.10
2019-03-19T17:53:56.270Z,15.10
2019-03-19T17:56:24.419Z,15.20
2019-03-19T17:58:52.686Z,15.30
2019-03-19T18:01:21.013Z,15.30
2019-03-19T18:03:49.271Z,15.30
2019-03-19T18:06:17.302Z,15.10
2019-03-19T18:08:45.518Z,15.30
2019-03-19T18:11:13.692Z,15.30
2019-03-19T18:13:41.838Z,15.50
2019-03-19T18:16:10.022Z,15.50
2019-03-19T18:18:37.984Z,15.40
2019-03-19T18:21:06.159Z,15.30
2019-03-19T18:23:34.497Z,15.30
2019-03-19T18:26:02.828Z,15.20
2019-03-19T18:28:31.067Z,15.20
2019-03-19T18:30:59.381Z,15.10
2019-03-19T18:33:27.546Z,15.00
2019-03-19T18:35:56.535Z,14.90
2019-03-19T18:38:24.473Z,15.00
2019-03-19T18:40:52.775Z,15.00
2019-03-19T18:43:21.039Z,15.10
2019-03-19T18:45:49.152Z,15.10
2019-03-19T18:48:17.022Z,15.10
2019-03-19T18:50:45.374Z,15.00
2019-03-19T18:53:13.735Z,15.00
2019-03-19T18:55:41.947Z,15.00
2019-03-19T18:58:10.169Z,15.10
2019-03-19T19:00:38.295Z,15.20
2019-03-19T19:03:06.451Z,15.20
2019-03-19T19:05:34.698Z,15.20
2019-03-19T19:08:02.900Z,15.00
2019-03-19T19:10:31.076Z,15.00
2019-03-19T19:12:59.391Z,15.00
2019-03-19T19:15:27.454Z,15.00
2019-03-19T19:17:55.691Z,15.10
2019-03-19T19:20:24.051Z,14.90
2019-03-19T19:22:52.134Z,15.00
2019-03-19T19:25:20.332Z,15.00
2019-03-19T19:27:48.768Z,14.90
2019-03-19T19:30:17.678Z,14.80
2019-03-19T19:32:45.886Z,14.90
2019-03-19T19:35:14.212Z,15.00
2019-03-19T19:37:42.454Z,15.10
2019-03-19T19:40:12.059Z,15.10
2019-03-19T19:42:40.366Z,15.10
2019-03-19T19:45:08.869Z,15.10
2019-03-19T19:47:36.985Z,15.00
2019-03-19T19:50:06.166Z,15.00
2019-03-19T19:52:34.463Z,14.90
2019-03-19T19:55:04.161Z,14.80
2019-03-19T19:57:32.400Z,14.70
2019-03-19T20:00:01.975Z,14.70
2019-03-19T20:02:30.591Z,14.60
2019-03-19T20:05:02.984Z,14.60
2019-03-19T20:07:28.890Z,14.70
2019-03-19T20:09:57.456Z,14.60
2019-03-19T20:12:25.610Z,14.50
2019-03-19T20:14:53.704Z,14.50
2019-03-19T20:17:21.990Z,14.60
2019-03-19T20:19:50.282Z,14.50
2019-03-19T20:22:18.558Z,14.50
2019-03-19T20:24:46.818Z,14.40
2019-03-19T20:27:16.097Z,14.50
2019-03-19T20:29:44.333Z,14.40
2019-03-19T20:32:12.611Z,14.40
2019-03-19T20:34:40.801Z,14.50
2019-03-19T20:37:09.060Z,14.50
2019-03-19T20:39:37.195Z,14.50
2019-03-19T20:42:05.539Z,14.40
2019-03-19T20:44:33.740Z,14.50
2019-03-19T20:47:02.315Z,14.40
2019-03-19T20:49:30.670Z,14.50
2019-03-19T20:51:58.994Z,14.50
2019-03-19T20:54:27.197Z,14.40
2019-03-19T20:56:55.526Z,14.30
2019-03-19T20:59:23.703Z,14.30
2019-03-19T21:01:51.892Z,14.30
2019-03-19T21:04:20.103Z,14.20
2019-03-19T21:06:48.321Z,14.00
2019-03-19T21:09:16.607Z,13.90
2019-03-19T21:11:44.743Z,14.20
2019-03-19T21:14:12.970Z,14.10
2019-03-19T21:16:40.804Z,14.10
2019-03-19T21:19:09.259Z,14.20
2019-03-19T21:21:37.595Z,14.40
2019-03-19T21:24:05.786Z,14.40
2019-03-19T21:26:34.165Z,14.40
2019-03-19T21:29:02.494Z,14.40
2019-03-19T21:31:30.675Z,14.40
2019-03-19T21:33:58.991Z,14.20
2019-03-19T21:36:27.341Z,14.10
2019-03-19T21:38:55.497Z,14.20
2019-03-19T21:41:23.844Z,14.00
2019-03-19T21:43:51.805Z,14.20
2019-03-19T21:46:20.023Z,14.30
2019-03-19T21:48:48.182Z,14.30
2019-03-19T21:51:16.283Z,14.40
2019-03-19T21:53:44.788Z,14.10
2019-03-19T21:56:13.101Z,14.00
2019-03-19T21:58:41.298Z,14.10
2019-03-19T22:01:09.480Z,14.30
2019-03-19T22:03:37.697Z,14.40
2019-03-19T22:06:05.933Z,14.50
2019-03-19T22:08:34.192Z,14.40
2019-03-19T22:11:02.430Z,14.30
2019-03-19T22:13:30.655Z,14.40
2019-03-19T22:15:58.882Z,14.30
2019-03-19T22:18:26.808Z,14.40
2019-03-19T22:20:55.070Z,14.40
2019-03-19T22:23:23.436Z,14.40
2019-03-19T22:25:51.647Z,14.30
2019-03-19T22:28:19.986Z,14.20
2019-03-19T22:30:48.291Z,14.20
2019-03-19T22:33:16.493Z,14.10
2019-03-19T22:35:44.713Z,14.10
2019-03-19T22:38:12.894Z,14.00
2019-03-19T22:40:41.184Z,14.00
2019-03-19T22:43:09.567Z,14.00
2019-03-19T22:45:37.734Z,14.10
2019-03-19T22:48:06.059Z,14.10
2019-03-19T22:50:34.358Z,14.10
2019-03-19T22:53:02.643Z,14.00
2019-03-19T22:55:30.904Z,14.10
2019-03-19T22:57:59.091Z,14.00
2019-03-19T23:00:44.950Z,14.00
2019-03-19T23:03:13.278Z,14.00
2019-03-19T23:05:41.626Z,13.90
2019-03-19T23:08:10.129Z,14.00
2019-03-19T23:10:38.525Z,14.10
2019-03-19T23:13:06.798Z,14.10
2019-03-19T23:15:35.210Z,14.00
2019-03-19T23:18:03.640Z,14.10
2019-03-19T23:20:31.797Z,14.20
2019-03-19T23:23:00.031Z,14.20
2019-03-19T23:25:28.378Z,14.10
2019-03-19T23:27:56.523Z,14.00
2019-03-19T23:30:24.760Z,13.90
2019-03-19T23:32:53.006Z,13.90
2019-03-19T23:35:21.367Z,13.90
2019-03-19T23:37:49.726Z,14.00
2019-03-19T23:40:18.004Z,13.90
2019-03-19T23:42:46.193Z,14.00
2019-03-19T23:45:14.836Z,14.10
2019-03-19T23:47:43.041Z,14.20
2019-03-19T23:50:11.434Z,14.20
2019-03-19T23:52:39.847Z,14.10
2019-03-19T23:55:08.082Z,14.20
2019-03-19T23:57:36.227Z,14.20
